sensor_id;sensor_type;location;lat;lon;timestamp;pressure;altitude;pressure_sealevel;temperature;humidity
39455;BME280;25155;41.890;23.446;2023-05-21T00:01:07;91752.72;;;13.68;69.44
39455;BME280;25155;41.890;23.446;2023-05-21T00:03:35;91756.34;;;13.72;68.83
39455;BME280;25155;41.890;23.446;2023-05-21T00:06:01;91749.25;;;13.73;68.50
39455;BME280;25155;41.890;23.446;2023-05-21T00:08:29;91750.88;;;13.69;68.63
39455;BME280;25155;41.890;23.446;2023-05-21T00:10:56;91753.09;;;13.61;68.84
39455;BME280;25155;41.890;23.446;2023-05-21T00:13:23;91744.53;;;13.56;69.07
39455;BME280;25155;41.890;23.446;2023-05-21T00:15:49;91750.81;;;13.55;69.62
39455;BME280;25155;41.890;23.446;2023-05-21T00:18:18;91739.56;;;13.54;69.48
39455;BME280;25155;41.890;23.446;2023-05-21T00:20:46;91741.13;;;13.55;69.62
39455;BME280;25155;41.890;23.446;2023-05-21T00:23:13;91742.41;;;13.58;69.52
39455;BME280;25155;41.890;23.446;2023-05-21T00:25:42;91737.66;;;13.60;69.68
39455;BME280;25155;41.890;23.446;2023-05-21T00:28:09;91746.00;;;13.62;69.74
39455;BME280;25155;41.890;23.446;2023-05-21T00:30:36;91743.09;;;13.63;69.40
39455;BME280;25155;41.890;23.446;2023-05-21T00:33:04;91729.41;;;13.66;69.08
39455;BME280;25155;41.890;23.446;2023-05-21T00:35:33;91727.09;;;13.65;69.66
39455;BME280;25155;41.890;23.446;2023-05-21T00:38:00;91726.78;;;13.66;68.80
39455;BME280;25155;41.890;23.446;2023-05-21T00:40:27;91725.25;;;13.65;69.64
39455;BME280;25155;41.890;23.446;2023-05-21T00:42:54;91713.22;;;13.64;69.32
39455;BME280;25155;41.890;23.446;2023-05-21T00:45:21;91720.31;;;13.64;69.72
39455;BME280;25155;41.890;23.446;2023-05-21T00:47:49;91707.97;;;13.64;69.36
39455;BME280;25155;41.890;23.446;2023-05-21T00:50:19;91711.88;;;13.67;69.27
39455;BME280;25155;41.890;23.446;2023-05-21T00:52:49;91702.16;;;13.68;69.44
39455;BME280;25155;41.890;23.446;2023-05-21T00:55:16;91702.53;;;13.61;69.96
39455;BME280;25155;41.890;23.446;2023-05-21T00:57:43;91697.09;;;13.57;70.11
39455;BME280;25155;41.890;23.446;2023-05-21T01:00:11;91688.44;;;13.57;69.88
39455;BME280;25155;41.890;23.446;2023-05-21T01:02:38;91695.03;;;13.54;70.47
39455;BME280;25155;41.890;23.446;2023-05-21T01:05:06;91692.50;;;13.49;70.75
39455;BME280;25155;41.890;23.446;2023-05-21T01:07:33;91688.03;;;13.50;70.19
39455;BME280;25155;41.890;23.446;2023-05-21T01:10:05;91688.59;;;13.46;70.49
39455;BME280;25155;41.890;23.446;2023-05-21T01:12:33;91687.81;;;13.46;70.08
39455;BME280;25155;41.890;23.446;2023-05-21T01:15:01;91676.56;;;13.45;69.98
39455;BME280;25155;41.890;23.446;2023-05-21T01:17:29;91690.72;;;13.44;69.52
39455;BME280;25155;41.890;23.446;2023-05-21T01:19:56;91686.34;;;13.40;70.32
39455;BME280;25155;41.890;23.446;2023-05-21T01:22:23;91677.28;;;13.32;70.92
39455;BME280;25155;41.890;23.446;2023-05-21T01:24:52;91685.75;;;13.24;70.98
39455;BME280;25155;41.890;23.446;2023-05-21T01:27:20;91679.75;;;13.23;70.59
39455;BME280;25155;41.890;23.446;2023-05-21T01:29:46;91676.63;;;13.21;70.53
39455;BME280;25155;41.890;23.446;2023-05-21T01:32:15;91681.09;;;13.21;69.99
39455;BME280;25155;41.890;23.446;2023-05-21T01:34:49;91684.84;;;13.15;69.68
39455;BME280;25155;41.890;23.446;2023-05-21T01:37:22;91679.75;;;13.04;70.82
39455;BME280;25155;41.890;23.446;2023-05-21T01:39:53;91683.09;;;12.91;71.32
39455;BME280;25155;41.890;23.446;2023-05-21T01:42:21;91684.13;;;12.90;70.87
39455;BME280;25155;41.890;23.446;2023-05-21T01:44:49;91675.06;;;12.82;72.10
39455;BME280;25155;41.890;23.446;2023-05-21T01:47:17;91685.53;;;12.82;71.68
39455;BME280;25155;41.890;23.446;2023-05-21T01:49:45;91685.25;;;12.84;71.62
39455;BME280;25155;41.890;23.446;2023-05-21T01:52:12;91671.59;;;12.87;71.30
39455;BME280;25155;41.890;23.446;2023-05-21T01:54:40;91668.00;;;12.83;71.78
39455;BME280;25155;41.890;23.446;2023-05-21T01:57:08;91661.56;;;12.75;72.22
39455;BME280;25155;41.890;23.446;2023-05-21T01:59:35;91667.16;;;12.68;72.69
39455;BME280;25155;41.890;23.446;2023-05-21T02:02:03;91669.28;;;12.66;72.19
39455;BME280;25155;41.890;23.446;2023-05-21T02:04:30;91660.34;;;12.67;71.65
39455;BME280;25155;41.890;23.446;2023-05-21T02:06:57;91658.28;;;12.64;72.85
39455;BME280;25155;41.890;23.446;2023-05-21T02:09:24;91655.16;;;12.43;73.96
39455;BME280;25155;41.890;23.446;2023-05-21T02:11:51;91657.03;;;12.37;73.85
39455;BME280;25155;41.890;23.446;2023-05-21T02:14:20;91649.19;;;12.37;73.68
39455;BME280;25155;41.890;23.446;2023-05-21T02:16:50;91650.00;;;12.38;73.76
39455;BME280;25155;41.890;23.446;2023-05-21T02:19:17;91637.13;;;12.42;72.93
39455;BME280;25155;41.890;23.446;2023-05-21T02:21:44;91643.75;;;12.34;74.42
39455;BME280;25155;41.890;23.446;2023-05-21T02:24:11;91638.59;;;12.29;74.73
39455;BME280;25155;41.890;23.446;2023-05-21T02:26:37;91647.72;;;12.31;74.14
39455;BME280;25155;41.890;23.446;2023-05-21T02:29:04;91645.31;;;12.35;73.90
39455;BME280;25155;41.890;23.446;2023-05-21T02:31:33;91642.91;;;12.39;73.71
39455;BME280;25155;41.890;23.446;2023-05-21T02:34:00;91642.38;;;12.42;73.34
39455;BME280;25155;41.890;23.446;2023-05-21T02:36:27;91641.00;;;12.44;72.88
39455;BME280;25155;41.890;23.446;2023-05-21T02:38:57;91642.84;;;12.44;72.62
39455;BME280;25155;41.890;23.446;2023-05-21T02:41:25;91643.69;;;12.39;73.64
39455;BME280;25155;41.890;23.446;2023-05-21T02:43:52;91642.25;;;12.28;74.02
39455;BME280;25155;41.890;23.446;2023-05-21T02:46:19;91645.66;;;12.28;73.72
39455;BME280;25155;41.890;23.446;2023-05-21T02:48:47;91637.88;;;12.23;74.35
39455;BME280;25155;41.890;23.446;2023-05-21T02:51:14;91640.25;;;12.19;74.70
39455;BME280;25155;41.890;23.446;2023-05-21T02:53:41;91637.47;;;12.11;75.14
39455;BME280;25155;41.890;23.446;2023-05-21T02:56:08;91643.78;;;12.10;75.09
39455;BME280;25155;41.890;23.446;2023-05-21T02:58:36;91643.72;;;12.15;75.01
39455;BME280;25155;41.890;23.446;2023-05-21T03:01:03;91640.03;;;12.16;74.85
39455;BME280;25155;41.890;23.446;2023-05-21T03:03:30;91647.94;;;12.11;74.75
39455;BME280;25155;41.890;23.446;2023-05-21T03:05:59;91643.47;;;12.11;74.96
39455;BME280;25155;41.890;23.446;2023-05-21T03:08:26;91654.94;;;12.15;74.12
39455;BME280;25155;41.890;23.446;2023-05-21T03:10:52;91655.72;;;12.16;74.09
39455;BME280;25155;41.890;23.446;2023-05-21T03:13:20;91650.50;;;12.16;73.47
39455;BME280;25155;41.890;23.446;2023-05-21T03:15:47;91654.25;;;12.10;73.62
39455;BME280;25155;41.890;23.446;2023-05-21T03:18:14;91650.59;;;12.06;74.16
39455;BME280;25155;41.890;23.446;2023-05-21T03:20:41;91661.13;;;12.00;74.56
39455;BME280;25155;41.890;23.446;2023-05-21T03:23:11;91663.25;;;11.98;74.65
39455;BME280;25155;41.890;23.446;2023-05-21T03:25:38;91657.97;;;12.04;74.28
39455;BME280;25155;41.890;23.446;2023-05-21T03:28:05;91660.09;;;11.96;74.70
39455;BME280;25155;41.890;23.446;2023-05-21T03:30:34;91666.41;;;11.95;74.77
39455;BME280;25155;41.890;23.446;2023-05-21T03:33:01;91669.50;;;11.97;74.35
39455;BME280;25155;41.890;23.446;2023-05-21T03:35:29;91662.16;;;11.99;74.39
39455;BME280;25155;41.890;23.446;2023-05-21T03:37:56;91662.38;;;12.03;74.65
39455;BME280;25155;41.890;23.446;2023-05-21T03:40:24;91664.28;;;11.97;75.30
39455;BME280;25155;41.890;23.446;2023-05-21T03:42:51;91664.88;;;11.89;76.58
39455;BME280;25155;41.890;23.446;2023-05-21T03:45:19;91663.59;;;11.87;75.92
39455;BME280;25155;41.890;23.446;2023-05-21T03:47:45;91653.13;;;11.92;75.40
39455;BME280;25155;41.890;23.446;2023-05-21T03:50:13;91648.13;;;11.90;75.48
39455;BME280;25155;41.890;23.446;2023-05-21T03:52:40;91648.69;;;11.87;76.08
39455;BME280;25155;41.890;23.446;2023-05-21T03:55:07;91656.53;;;11.87;76.89
39455;BME280;25155;41.890;23.446;2023-05-21T03:57:35;91654.94;;;11.91;76.63
39455;BME280;25155;41.890;23.446;2023-05-21T04:00:03;91663.53;;;11.97;76.55
39455;BME280;25155;41.890;23.446;2023-05-21T04:02:31;91661.41;;;11.99;77.15
39455;BME280;25155;41.890;23.446;2023-05-21T04:04:58;91670.22;;;12.03;77.10
39455;BME280;25155;41.890;23.446;2023-05-21T04:07:24;91658.19;;;12.07;76.20
39455;BME280;25155;41.890;23.446;2023-05-21T04:09:51;91650.06;;;12.09;76.28
39455;BME280;25155;41.890;23.446;2023-05-21T04:12:18;91668.09;;;12.10;76.28
39455;BME280;25155;41.890;23.446;2023-05-21T04:14:47;91671.97;;;12.13;76.37
39455;BME280;25155;41.890;23.446;2023-05-21T04:17:14;91675.09;;;12.15;76.16
39455;BME280;25155;41.890;23.446;2023-05-21T04:19:41;91668.75;;;12.21;76.31
39455;BME280;25155;41.890;23.446;2023-05-21T04:22:09;91665.84;;;12.23;76.18
39455;BME280;25155;41.890;23.446;2023-05-21T04:24:35;91665.34;;;12.21;76.63
39455;BME280;25155;41.890;23.446;2023-05-21T04:27:03;91670.97;;;12.09;78.54
39455;BME280;25155;41.890;23.446;2023-05-21T04:29:31;91680.41;;;12.05;78.41
39455;BME280;25155;41.890;23.446;2023-05-21T04:31:59;91675.16;;;12.10;78.21
39455;BME280;25155;41.890;23.446;2023-05-21T04:34:26;91681.09;;;12.15;77.57
39455;BME280;25155;41.890;23.446;2023-05-21T04:36:54;91684.44;;;12.21;77.36
39455;BME280;25155;41.890;23.446;2023-05-21T04:39:21;91674.97;;;12.25;77.27
39455;BME280;25155;41.890;23.446;2023-05-21T04:41:48;91676.53;;;12.26;78.27
39455;BME280;25155;41.890;23.446;2023-05-21T04:44:18;91674.91;;;12.30;77.73
39455;BME280;25155;41.890;23.446;2023-05-21T04:46:45;91672.75;;;12.37;77.75
39455;BME280;25155;41.890;23.446;2023-05-21T04:49:14;91677.41;;;12.41;78.26
39455;BME280;25155;41.890;23.446;2023-05-21T04:51:42;91670.13;;;12.37;79.42
39455;BME280;25155;41.890;23.446;2023-05-21T04:54:09;91673.25;;;12.40;79.03
39455;BME280;25155;41.890;23.446;2023-05-21T04:56:36;91676.84;;;12.44;78.41
39455;BME280;25155;41.890;23.446;2023-05-21T04:59:02;91675.75;;;12.50;78.17
39455;BME280;25155;41.890;23.446;2023-05-21T05:01:31;91674.59;;;12.56;77.75
39455;BME280;25155;41.890;23.446;2023-05-21T05:03:59;91671.44;;;12.59;78.97
39455;BME280;25155;41.890;23.446;2023-05-21T05:06:28;91675.06;;;12.63;78.49
39455;BME280;25155;41.890;23.446;2023-05-21T05:08:55;91675.47;;;12.70;78.33
39455;BME280;25155;41.890;23.446;2023-05-21T05:11:22;91678.03;;;12.76;77.96
39455;BME280;25155;41.890;23.446;2023-05-21T05:13:49;91678.47;;;12.83;77.55
39455;BME280;25155;41.890;23.446;2023-05-21T05:16:16;91671.19;;;12.80;78.63
39455;BME280;25155;41.890;23.446;2023-05-21T05:18:49;91668.63;;;12.74;78.92
39455;BME280;25155;41.890;23.446;2023-05-21T05:21:16;91665.47;;;12.78;78.95
39455;BME280;25155;41.890;23.446;2023-05-21T05:23:45;91666.16;;;12.83;78.79
39455;BME280;25155;41.890;23.446;2023-05-21T05:26:12;91666.09;;;12.88;79.56
39455;BME280;25155;41.890;23.446;2023-05-21T05:28:39;91669.41;;;12.94;79.83
39455;BME280;25155;41.890;23.446;2023-05-21T05:31:06;91664.13;;;12.99;80.37
39455;BME280;25155;41.890;23.446;2023-05-21T05:33:32;91665.59;;;13.05;80.18
39455;BME280;25155;41.890;23.446;2023-05-21T05:35:59;91660.78;;;13.13;80.09
39455;BME280;25155;41.890;23.446;2023-05-21T05:38:26;91661.97;;;13.20;79.60
39455;BME280;25155;41.890;23.446;2023-05-21T05:40:54;91663.47;;;13.26;79.32
39455;BME280;25155;41.890;23.446;2023-05-21T05:43:21;91660.22;;;13.35;78.87
39455;BME280;25155;41.890;23.446;2023-05-21T05:45:50;91654.63;;;13.41;77.51
39455;BME280;25155;41.890;23.446;2023-05-21T05:48:17;91658.72;;;13.47;76.88
39455;BME280;25155;41.890;23.446;2023-05-21T05:50:44;91661.25;;;13.53;75.94
39455;BME280;25155;41.890;23.446;2023-05-21T05:53:11;91656.41;;;13.60;75.88
39455;BME280;25155;41.890;23.446;2023-05-21T05:55:38;91660.22;;;13.68;75.60
39455;BME280;25155;41.890;23.446;2023-05-21T05:58:07;91660.44;;;13.71;74.53
39455;BME280;25155;41.890;23.446;2023-05-21T06:00:34;91654.59;;;13.74;73.68
39455;BME280;25155;41.890;23.446;2023-05-21T06:03:01;91657.22;;;13.74;73.16
39455;BME280;25155;41.890;23.446;2023-05-21T06:05:28;91649.56;;;13.78;73.01
39455;BME280;25155;41.890;23.446;2023-05-21T06:07:55;91655.81;;;13.82;73.11
39455;BME280;25155;41.890;23.446;2023-05-21T06:10:22;91655.91;;;13.91;73.82
39455;BME280;25155;41.890;23.446;2023-05-21T06:12:49;91662.91;;;13.95;74.29
39455;BME280;25155;41.890;23.446;2023-05-21T06:15:17;91655.72;;;14.01;74.07
39455;BME280;25155;41.890;23.446;2023-05-21T06:17:44;91655.63;;;14.06;73.46
39455;BME280;25155;41.890;23.446;2023-05-21T06:20:11;91657.56;;;14.14;73.42
39455;BME280;25155;41.890;23.446;2023-05-21T06:22:41;91659.81;;;14.21;73.03
39455;BME280;25155;41.890;23.446;2023-05-21T06:25:08;91657.88;;;14.27;72.97
39455;BME280;25155;41.890;23.446;2023-05-21T06:27:36;91649.91;;;14.32;73.20
39455;BME280;25155;41.890;23.446;2023-05-21T06:30:03;91643.28;;;14.34;71.29
39455;BME280;25155;41.890;23.446;2023-05-21T06:32:31;91645.63;;;14.36;71.70
39455;BME280;25155;41.890;23.446;2023-05-21T06:34:58;91639.03;;;14.38;72.09
39455;BME280;25155;41.890;23.446;2023-05-21T06:37:25;91644.47;;;14.42;72.09
39455;BME280;25155;41.890;23.446;2023-05-21T06:39:52;91648.66;;;14.43;71.71
39455;BME280;25155;41.890;23.446;2023-05-21T06:42:19;91643.28;;;14.48;71.84
39455;BME280;25155;41.890;23.446;2023-05-21T06:44:46;91637.94;;;14.53;71.40
39455;BME280;25155;41.890;23.446;2023-05-21T06:47:13;91634.72;;;14.56;69.86
39455;BME280;25155;41.890;23.446;2023-05-21T06:49:42;91644.94;;;14.58;69.39
39455;BME280;25155;41.890;23.446;2023-05-21T06:52:09;91639.31;;;14.65;69.91
39455;BME280;25155;41.890;23.446;2023-05-21T06:54:36;91635.69;;;14.74;70.39
39455;BME280;25155;41.890;23.446;2023-05-21T06:57:03;91643.66;;;14.83;69.88
39455;BME280;25155;41.890;23.446;2023-05-21T06:59:30;91636.16;;;14.90;68.98
39455;BME280;25155;41.890;23.446;2023-05-21T07:01:57;91629.13;;;15.00;69.26
39455;BME280;25155;41.890;23.446;2023-05-21T07:04:24;91626.84;;;15.07;67.67
39455;BME280;25155;41.890;23.446;2023-05-21T07:06:53;91622.47;;;15.16;66.73
39455;BME280;25155;41.890;23.446;2023-05-21T07:09:20;91615.41;;;15.25;65.14
39455;BME280;25155;41.890;23.446;2023-05-21T07:11:46;91621.03;;;15.32;64.69
39455;BME280;25155;41.890;23.446;2023-05-21T07:14:13;91622.44;;;15.39;62.99
39455;BME280;25155;41.890;23.446;2023-05-21T07:16:40;91626.81;;;15.43;62.66
39455;BME280;25155;41.890;23.446;2023-05-21T07:19:07;91622.53;;;15.47;62.02
39455;BME280;25155;41.890;23.446;2023-05-21T07:21:34;91638.47;;;15.51;61.56
39455;BME280;25155;41.890;23.446;2023-05-21T07:24:03;91629.47;;;15.52;56.95
39455;BME280;25155;41.890;23.446;2023-05-21T07:26:30;91642.31;;;15.54;56.39
39455;BME280;25155;41.890;23.446;2023-05-21T07:28:56;91633.25;;;15.60;53.80
39455;BME280;25155;41.890;23.446;2023-05-21T07:31:23;91638.22;;;15.61;52.58
39455;BME280;25155;41.890;23.446;2023-05-21T07:33:50;91641.31;;;15.63;52.89
39455;BME280;25155;41.890;23.446;2023-05-21T07:36:18;91633.13;;;15.65;53.56
39455;BME280;25155;41.890;23.446;2023-05-21T07:38:45;91638.38;;;15.65;53.13
39455;BME280;25155;41.890;23.446;2023-05-21T07:41:13;91635.16;;;15.68;53.57
39455;BME280;25155;41.890;23.446;2023-05-21T07:43:40;91638.56;;;15.68;53.82
39455;BME280;25155;41.890;23.446;2023-05-21T07:46:07;91635.44;;;15.66;52.39
39455;BME280;25155;41.890;23.446;2023-05-21T07:48:34;91643.16;;;15.63;51.83
39455;BME280;25155;41.890;23.446;2023-05-21T07:51:00;91641.59;;;15.62;51.59
39455;BME280;25155;41.890;23.446;2023-05-21T07:53:28;91655.53;;;15.62;50.76
39455;BME280;25155;41.890;23.446;2023-05-21T07:55:56;91657.06;;;15.63;50.64
39455;BME280;25155;41.890;23.446;2023-05-21T07:58:25;91661.69;;;15.58;50.68
39455;BME280;25155;41.890;23.446;2023-05-21T08:00:52;91671.75;;;15.56;50.76
39455;BME280;25155;41.890;23.446;2023-05-21T08:03:18;91661.03;;;15.52;51.42
39455;BME280;25155;41.890;23.446;2023-05-21T08:05:46;91660.09;;;15.48;51.30
39455;BME280;25155;41.890;23.446;2023-05-21T08:08:15;91656.97;;;15.46;51.91
39455;BME280;25155;41.890;23.446;2023-05-21T08:10:42;91662.53;;;15.44;51.04
39455;BME280;25155;41.890;23.446;2023-05-21T08:13:10;91664.19;;;15.40;51.54
39455;BME280;25155;41.890;23.446;2023-05-21T08:15:38;91663.41;;;15.40;51.94
39455;BME280;25155;41.890;23.446;2023-05-21T08:18:05;91662.66;;;15.39;51.52
39455;BME280;25155;41.890;23.446;2023-05-21T08:20:32;91662.66;;;15.39;51.71
39455;BME280;25155;41.890;23.446;2023-05-21T08:22:59;91662.66;;;15.39;51.73
39455;BME280;25155;41.890;23.446;2023-05-21T08:25:27;91668.69;;;15.40;50.93
39455;BME280;25155;41.890;23.446;2023-05-21T08:27:54;91667.91;;;15.39;50.97
39455;BME280;25155;41.890;23.446;2023-05-21T08:30:21;91668.97;;;15.38;51.29
39455;BME280;25155;41.890;23.446;2023-05-21T08:32:49;91676.84;;;15.38;51.68
39455;BME280;25155;41.890;23.446;2023-05-21T08:35:16;91677.63;;;15.39;51.75
39455;BME280;25155;41.890;23.446;2023-05-21T08:37:44;91671.31;;;15.40;51.49
39455;BME280;25155;41.890;23.446;2023-05-21T08:40:11;91681.53;;;15.41;52.04
39455;BME280;25155;41.890;23.446;2023-05-21T08:42:41;91668.09;;;15.43;51.92
39455;BME280;25155;41.890;23.446;2023-05-21T08:45:10;91680.25;;;15.39;49.95
39455;BME280;25155;41.890;23.446;2023-05-21T08:47:40;91686.31;;;15.39;50.68
39455;BME280;25155;41.890;23.446;2023-05-21T08:50:10;91680.75;;;15.41;50.46
39455;BME280;25155;41.890;23.446;2023-05-21T08:52:37;91671.78;;;15.42;50.81
39455;BME280;25155;41.890;23.446;2023-05-21T08:55:05;91682.47;;;15.45;51.48
39455;BME280;25155;41.890;23.446;2023-05-21T08:57:33;91688.22;;;15.47;51.60
39455;BME280;25155;41.890;23.446;2023-05-21T09:00:00;91687.31;;;15.52;52.06
39455;BME280;25155;41.890;23.446;2023-05-21T09:02:31;91683.44;;;15.49;51.25
39455;BME280;25155;41.890;23.446;2023-05-21T09:04:59;91687.31;;;15.52;51.30
39455;BME280;25155;41.890;23.446;2023-05-21T09:07:29;91682.03;;;15.52;51.09
39455;BME280;25155;41.890;23.446;2023-05-21T09:09:57;91690.13;;;15.56;50.41
39455;BME280;25155;41.890;23.446;2023-05-21T09:12:27;91681.44;;;15.55;49.66
39455;BME280;25155;41.890;23.446;2023-05-21T09:14:54;91689.34;;;15.55;49.68
39455;BME280;25155;41.890;23.446;2023-05-21T09:17:22;91680.81;;;15.49;48.55
39455;BME280;25155;41.890;23.446;2023-05-21T09:22:42;91676.44;;;15.45;48.97
39455;BME280;25155;41.890;23.446;2023-05-21T09:25:10;91676.25;;;15.41;48.21
39455;BME280;25155;41.890;23.446;2023-05-21T09:27:38;91674.88;;;15.44;48.82
39455;BME280;25155;41.890;23.446;2023-05-21T09:30:08;91686.94;;;15.45;49.03
39455;BME280;25155;41.890;23.446;2023-05-21T09:32:35;91690.06;;;15.47;48.45
39455;BME280;25155;41.890;23.446;2023-05-21T09:35:08;91684.78;;;15.47;48.77
39455;BME280;25155;41.890;23.446;2023-05-21T09:37:36;91684.78;;;15.47;48.20
39455;BME280;25155;41.890;23.446;2023-05-21T09:40:10;91685.09;;;15.45;48.18
39455;BME280;25155;41.890;23.446;2023-05-21T09:42:37;91689.00;;;15.48;48.88
39455;BME280;25155;41.890;23.446;2023-05-21T09:45:05;91689.00;;;15.48;48.94
39455;BME280;25155;41.890;23.446;2023-05-21T09:47:32;91688.41;;;15.51;49.31
39455;BME280;25155;41.890;23.446;2023-05-21T09:49:59;91690.44;;;15.54;49.74
39455;BME280;25155;41.890;23.446;2023-05-21T09:52:25;91684.09;;;15.55;50.27
39455;BME280;25155;41.890;23.446;2023-05-21T09:54:54;91691.97;;;15.55;50.25
39455;BME280;25155;41.890;23.446;2023-05-21T09:57:25;91694.72;;;15.50;49.49
39455;BME280;25155;41.890;23.446;2023-05-21T09:59:52;91694.72;;;15.50;50.17
39455;BME280;25155;41.890;23.446;2023-05-21T10:02:20;91696.47;;;15.55;50.97
39455;BME280;25155;41.890;23.446;2023-05-21T10:04:48;91692.69;;;15.47;51.60
39455;BME280;25155;41.890;23.446;2023-05-21T10:07:16;91702.78;;;15.31;51.14
39455;BME280;25155;41.890;23.446;2023-05-21T10:09:44;91706.22;;;15.18;51.17
39455;BME280;25155;41.890;23.446;2023-05-21T10:12:12;91712.56;;;15.03;53.17
39455;BME280;25155;41.890;23.446;2023-05-21T10:14:41;91718.53;;;14.94;53.93
39455;BME280;25155;41.890;23.446;2023-05-21T10:17:09;91722.69;;;14.95;53.64
39455;BME280;25155;41.890;23.446;2023-05-21T10:19:37;91723.84;;;14.89;53.70
39455;BME280;25155;41.890;23.446;2023-05-21T10:22:06;91716.28;;;14.74;55.37
39455;BME280;25155;41.890;23.446;2023-05-21T10:24:33;91706.16;;;14.53;56.19
39455;BME280;25155;41.890;23.446;2023-05-21T10:27:01;91718.88;;;14.46;57.56
39455;BME280;25155;41.890;23.446;2023-05-21T10:29:29;91704.72;;;14.47;58.98
39455;BME280;25155;41.890;23.446;2023-05-21T10:31:58;91713.75;;;14.41;60.21
39455;BME280;25155;41.890;23.446;2023-05-21T10:34:26;91719.94;;;14.31;59.15
39455;BME280;25155;41.890;23.446;2023-05-21T10:36:53;91723.16;;;14.28;58.86
39455;BME280;25155;41.890;23.446;2023-05-21T10:39:21;91738.03;;;14.33;57.87
39455;BME280;25155;41.890;23.446;2023-05-21T10:41:52;91744.94;;;14.43;57.94
39455;BME280;25155;41.890;23.446;2023-05-21T10:44:25;91730.66;;;14.49;59.11
39455;BME280;25155;41.890;23.446;2023-05-21T10:47:04;91727.84;;;14.45;61.42
39455;BME280;25155;41.890;23.446;2023-05-21T10:49:37;91720.94;;;14.35;63.32
39455;BME280;25155;41.890;23.446;2023-05-21T10:52:10;91724.41;;;14.31;60.74
39455;BME280;25155;41.890;23.446;2023-05-21T10:54:57;91720.66;;;14.37;61.03
39455;BME280;25155;41.890;23.446;2023-05-21T10:57:35;91729.09;;;14.48;61.89
39455;BME280;25155;41.890;23.446;2023-05-21T11:00:08;91729.78;;;14.53;61.45
39455;BME280;25155;41.890;23.446;2023-05-21T11:02:38;91729.44;;;14.60;61.37
39455;BME280;25155;41.890;23.446;2023-05-21T11:05:05;91727.47;;;14.66;61.03
39455;BME280;25155;41.890;23.446;2023-05-21T11:07:51;91732.03;;;14.74;61.30
39455;BME280;25155;41.890;23.446;2023-05-21T11:10:31;91720.09;;;14.82;60.99
39455;BME280;25155;41.890;23.446;2023-05-21T11:13:06;91717.84;;;14.89;61.01
39455;BME280;25155;41.890;23.446;2023-05-21T11:18:15;91718.41;;;14.86;62.99
39455;BME280;25155;41.890;23.446;2023-05-21T11:20:43;91715.03;;;14.85;63.55
39455;BME280;25155;41.890;23.446;2023-05-21T11:23:16;91701.31;;;14.88;63.33
39455;BME280;25155;41.890;23.446;2023-05-21T11:25:43;91696.72;;;14.94;63.33
39455;BME280;25155;41.890;23.446;2023-05-21T11:28:10;91695.94;;;14.93;63.44
39455;BME280;25155;41.890;23.446;2023-05-21T11:30:37;91697.59;;;14.89;63.88
39455;BME280;25155;41.890;23.446;2023-05-21T11:33:18;91698.50;;;14.85;62.32
39455;BME280;25155;41.890;23.446;2023-05-21T11:35:55;91693.34;;;14.80;59.50
39455;BME280;25155;41.890;23.446;2023-05-21T11:38:22;91691.13;;;14.73;59.31
39455;BME280;25155;41.890;23.446;2023-05-21T11:40:51;91689.56;;;14.72;60.29
39455;BME280;25155;41.890;23.446;2023-05-21T11:43:19;91691.59;;;14.75;60.59
39455;BME280;25155;41.890;23.446;2023-05-21T11:45:46;91688.78;;;14.85;60.88
39455;BME280;25155;41.890;23.446;2023-05-21T11:48:13;91683.41;;;14.90;60.03
39455;BME280;25155;41.890;23.446;2023-05-21T11:50:41;91677.19;;;14.86;57.32
39455;BME280;25155;41.890;23.446;2023-05-21T11:53:08;91676.69;;;14.84;58.81
39455;BME280;25155;41.890;23.446;2023-05-21T11:55:37;91681.00;;;14.80;57.77
39455;BME280;25155;41.890;23.446;2023-05-21T11:58:08;91685.66;;;14.69;53.98
39455;BME280;25155;41.890;23.446;2023-05-21T12:00:38;91676.06;;;14.65;56.94
39455;BME280;25155;41.890;23.446;2023-05-21T12:03:06;91681.09;;;14.61;57.17
39455;BME280;25155;41.890;23.446;2023-05-21T12:05:44;91676.16;;;14.60;57.77
39455;BME280;25155;41.890;23.446;2023-05-21T12:08:12;91669.84;;;14.61;59.03
39455;BME280;25155;41.890;23.446;2023-05-21T12:10:38;91668.28;;;14.60;58.41
39455;BME280;25155;41.890;23.446;2023-05-21T12:13:06;91664.59;;;14.61;58.94
39455;BME280;25155;41.890;23.446;2023-05-21T12:15:33;91663.25;;;14.63;60.02
39455;BME280;25155;41.890;23.446;2023-05-21T12:18:00;91664.47;;;14.66;60.53
39455;BME280;25155;41.890;23.446;2023-05-21T12:20:27;91671.78;;;14.69;59.77
39455;BME280;25155;41.890;23.446;2023-05-21T12:22:57;91664.97;;;14.82;59.94
39455;BME280;25155;41.890;23.446;2023-05-21T12:25:24;91671.84;;;14.91;59.80
39455;BME280;25155;41.890;23.446;2023-05-21T12:27:51;91671.66;;;14.88;54.43
39455;BME280;25155;41.890;23.446;2023-05-21T12:30:23;91666.47;;;14.97;55.91
39455;BME280;25155;41.890;23.446;2023-05-21T12:32:50;91668.88;;;15.07;57.94
39455;BME280;25155;41.890;23.446;2023-05-21T12:35:20;91666.91;;;15.12;56.00
39455;BME280;25155;41.890;23.446;2023-05-21T12:37:48;91665.44;;;15.20;57.22
39455;BME280;25155;41.890;23.446;2023-05-21T12:40:18;91671.25;;;15.31;57.55
39455;BME280;25155;41.890;23.446;2023-05-21T12:42:45;91667.13;;;15.39;55.65
39455;BME280;25155;41.890;23.446;2023-05-21T12:45:12;91665.94;;;15.45;55.18
39455;BME280;25155;41.890;23.446;2023-05-21T12:47:39;91670.75;;;15.52;56.05
39455;BME280;25155;41.890;23.446;2023-05-21T12:50:07;91669.28;;;15.59;56.50
39455;BME280;25155;41.890;23.446;2023-05-21T12:52:36;91674.28;;;15.69;56.75
39455;BME280;25155;41.890;23.446;2023-05-21T12:55:03;91679.63;;;15.78;56.86
39455;BME280;25155;41.890;23.446;2023-05-21T12:57:35;91683.09;;;15.88;57.04
39455;BME280;25155;41.890;23.446;2023-05-21T13:00:03;91676.63;;;15.94;57.05